Map

Track Data

SID SEASON NUMBER BASIN SUBBASIN NAME ISO_TIME NATURE LAT LON WMO_WIND WMO_PRES WMO_AGENCY TRACK_TYPE DIST2LAND LANDFALL IFLAG USA_AGENCY USA_ATCF_ID USA_LAT USA_LON USA_RECORD USA_STATUS USA_WIND USA_PRES USA_SSHS USA_R34_NE USA_R34_SE USA_R34_SW USA_R34_NW USA_R50_NE USA_R50_SE USA_R50_SW USA_R50_NW USA_R64_NE USA_R64_SE USA_R64_SW USA_R64_NW USA_POCI USA_ROCI USA_RMW USA_EYE TOKYO_LAT TOKYO_LON TOKYO_GRADE TOKYO_WIND TOKYO_PRES TOKYO_R50_DIR TOKYO_R50_LONG TOKYO_R50_SHORT TOKYO_R30_DIR TOKYO_R30_LONG TOKYO_R30_SHORT TOKYO_LAND CMA_LAT CMA_LON CMA_CAT CMA_WIND CMA_PRES HKO_LAT HKO_LON HKO_CAT HKO_WIND HKO_PRES NEWDELHI_LAT NEWDELHI_LON NEWDELHI_GRADE NEWDELHI_WIND NEWDELHI_PRES NEWDELHI_CI NEWDELHI_DP NEWDELHI_POCI REUNION_LAT REUNION_LON REUNION_TYPE REUNION_WIND REUNION_PRES REUNION_TNUM REUNION_CI REUNION_RMW REUNION_R34_NE REUNION_R34_SE REUNION_R34_SW REUNION_R34_NW REUNION_R50_NE REUNION_R50_SE REUNION_R50_SW REUNION_R50_NW REUNION_R64_NE REUNION_R64_SE REUNION_R64_SW REUNION_R64_NW BOM_LAT BOM_LON BOM_TYPE BOM_WIND BOM_PRES BOM_TNUM BOM_CI BOM_RMW BOM_R34_NE BOM_R34_SE BOM_R34_SW BOM_R34_NW BOM_R50_NE BOM_R50_SE BOM_R50_SW BOM_R50_NW BOM_R64_NE BOM_R64_SE BOM_R64_SW BOM_R64_NW BOM_ROCI BOM_POCI BOM_EYE BOM_POS_METHOD BOM_PRES_METHOD NADI_LAT NADI_LON NADI_CAT NADI_WIND NADI_PRES WELLINGTON_LAT WELLINGTON_LON WELLINGTON_WIND WELLINGTON_PRES DS824_LAT DS824_LON DS824_STAGE DS824_WIND DS824_PRES TD9636_LAT TD9636_LON TD9636_STAGE TD9636_WIND TD9636_PRES TD9635_LAT TD9635_LON TD9635_WIND TD9635_PRES TD9635_ROCI NEUMANN_LAT NEUMANN_LON NEUMANN_CLASS NEUMANN_WIND NEUMANN_PRES MLC_LAT MLC_LON MLC_CLASS MLC_WIND MLC_PRES USA_GUST BOM_GUST BOM_GUST_PER REUNION_GUST REUNION_GUST_PER USA_SEAHGT USA_SEARAD_NE USA_SEARAD_SE USA_SEARAD_SW USA_SEARAD_NW STORM_SPEED STORM_DIR
1955288N13281 1955 85 NA CS KATIE 1955-10-14 18:00:00 TS 12.5000 -79.3000 25 hurdat_atl main 336 336 O_____________ hurdat_atl AL131955 12.5000 -79.3000 TD 25 -1 6 70
1955288N13281 1955 85 NA CS KATIE 1955-10-14 21:00:00 TS 12.6026 -79.0076 main 347 347 P_____________ AL131955 12.6026 -79.0076 TD 27 -1 6 71
1955288N13281 1955 85 NA CS KATIE 1955-10-15 00:00:00 TS 12.7000 -78.7000 30 hurdat_atl main 361 361 O_____________ hurdat_atl AL131955 12.7000 -78.7000 TD 30 -1 7 73
1955288N13281 1955 85 NA CS KATIE 1955-10-15 03:00:00 TS 12.7925 -78.3649 main 377 374 P_____________ AL131955 12.7925 -78.3649 TD 32 -1 7 74
1955288N13281 1955 85 NA CS KATIE 1955-10-15 06:00:00 TS 12.9000 -78.0000 35 hurdat_atl main 374 351 O_____________ hurdat_atl AL131955 12.9000 -78.0000 TS 35 0 8 72
1955288N13281 1955 85 NA CS KATIE 1955-10-15 09:00:00 TS 13.0275 -77.6074 main 351 337 P_____________ AL131955 13.0275 -77.6074 TS 37 0 8 69
1955288N13281 1955 85 NA CS KATIE 1955-10-15 12:00:00 TS 13.2000 -77.2000 40 hurdat_atl main 339 332 O_____________ hurdat_atl AL131955 13.2000 -77.2000 TS 40 0 9 62
1955288N13281 1955 85 NA CS KATIE 1955-10-15 15:00:00 TS 13.4273 -76.8224 main 333 333 P_____________ AL131955 13.4273 -76.8224 TS 42 0 9 57
1955288N13281 1955 85 NA CS KATIE 1955-10-15 18:00:00 TS 13.7000 -76.4000 45 hurdat_atl main 343 338 O_____________ hurdat_atl AL131955 13.7000 -76.4000 TS 45 0 11 59
1955288N13281 1955 85 NA CS KATIE 1955-10-15 21:00:00 TS 14.0002 -75.8501 main 353 349 P_____________ AL131955 14.0002 -75.8501 TS 47 0 12 61
1955288N13281 1955 85 NA CS KATIE 1955-10-16 00:00:00 TS 14.3000 -75.3000 50 hurdat_atl main 367 363 O_____________ hurdat_atl AL131955 14.3000 -75.3000 TS 50 0 11 60
1955288N13281 1955 85 NA CS KATIE 1955-10-16 03:00:00 TS 14.5498 -74.8773 main 377 363 P_____________ AL131955 14.5498 -74.8773 TS 52 0 9 57
1955288N13281 1955 85 NA CS KATIE 1955-10-16 06:00:00 TS 14.8000 -74.5000 55 hurdat_atl main 363 325 O_____________ hurdat_atl AL131955 14.8000 -74.5000 TS 55 0 9 55
1955288N13281 1955 85 NA CS KATIE 1955-10-16 09:00:00 TS 15.0774 -74.0998 main 325 291 P_____________ AL131955 15.0774 -74.0998 TS 60 0 10 52
1955288N13281 1955 85 NA CS KATIE 1955-10-16 12:00:00 TS 15.4000 -73.7000 65 hurdat_atl main 291 251 O_____________ hurdat_atl AL131955 15.4000 -73.7000 HU 65 1 11 48
1955288N13281 1955 85 NA CS KATIE 1955-10-16 15:00:00 TS 15.7775 -73.2850 main 251 212 P_____________ AL131955 15.7775 -73.2850 HU 70 1 11 44
1955288N13281 1955 85 NA CS KATIE 1955-10-16 18:00:00 TS 16.2000 -72.9000 75 984 hurdat_atl main 212 169 O_____________ hurdat_atl AL131955 16.2000 -72.9000 HU 75 984 1 11 38
1955288N13281 1955 85 NA CS KATIE 1955-10-16 21:00:00 TS 16.6277 -72.5949 main 169 107 P_____________ AL131955 16.6277 -72.5949 HU 80 1 11 33
1955288N13281 1955 85 NA CS KATIE 1955-10-17 00:00:00 TS 17.1000 -72.3000 85 hurdat_atl main 107 33 O_____________ hurdat_atl AL131955 17.1000 -72.3000 HU 85 2 13 33
1955288N13281 1955 85 NA CS KATIE 1955-10-17 03:00:00 TS 17.6901 -71.8598 main 33 0 P_____________ AL131955 17.6901 -71.8598 HU 90 2 13 32
1955288N13281 1955 85 NA CS KATIE 1955-10-17 05:00:00 TS 18.0000 -71.7000 95 hurdat_atl main 0 0 O_____________ hurdat_atl AL131955 18.0000 -71.7000 L HU 95 2 9 20
1955288N13281 1955 85 NA NA KATIE 1955-10-17 06:00:00 TS 18.1000 -71.7000 95 hurdat_atl main 0 0 O_____________ hurdat_atl AL131955 18.1000 -71.7000 HU 95 2 10 19
1955288N13281 1955 85 NA NA KATIE 1955-10-17 09:00:00 TS 18.6192 -71.4754 main 0 0 P_____________ AL131955 18.6192 -71.4754 HU 72 1 13 25
1955288N13281 1955 85 NA NA KATIE 1955-10-17 12:00:00 TS 19.3000 -71.1000 50 hurdat_atl main 0 0 O_____________ hurdat_atl AL131955 19.3000 -71.1000 TS 50 0 14 25
1955288N13281 1955 85 NA NA KATIE 1955-10-17 15:00:00 TS 19.8849 -70.8496 main 11 11 P_____________ AL131955 19.8849 -70.8496 TS 50 0 13 21
1955288N13281 1955 85 NA NA KATIE 1955-10-17 18:00:00 TS 20.5000 -70.6000 50 1000 hurdat_atl main 78 78 O_____________ hurdat_atl AL131955 20.5000 -70.6000 TS 50 1000 0 14 21
1955288N13281 1955 85 NA NA KATIE 1955-10-17 21:00:00 TS 21.1849 -70.3222 main 159 159 P_____________ AL131955 21.1849 -70.3222 TS 50 0 15 22
1955288N13281 1955 85 NA NA KATIE 1955-10-18 00:00:00 TS 21.9000 -70.0000 50 hurdat_atl main 242 242 O_____________ hurdat_atl AL131955 21.9000 -70.0000 TS 50 0 16 25
1955288N13281 1955 85 NA NA KATIE 1955-10-18 03:00:00 TS 22.5999 -69.6222 main 329 329 P_____________ AL131955 22.5999 -69.6222 TS 50 0 16 28
1955288N13281 1955 85 NA NA KATIE 1955-10-18 06:00:00 TS 23.3000 -69.2000 50 hurdat_atl main 417 417 O_____________ hurdat_atl AL131955 23.3000 -69.2000 TS 50 0 16 30
1955288N13281 1955 85 NA NA KATIE 1955-10-18 09:00:00 TS 23.9398 -68.7784 main 494 494 P_____________ AL131955 23.9398 -68.7784 TS 50 0 16 30
1955288N13281 1955 85 NA NA KATIE 1955-10-18 12:00:00 TS 24.7000 -68.3000 50 hurdat_atl main 596 596 O_____________ hurdat_atl AL131955 24.7000 -68.3000 TS 50 0 20 28
1955288N13281 1955 85 NA NA KATIE 1955-10-18 15:00:00 TS 25.7096 -67.7583 main 718 718 P_____________ AL131955 25.7096 -67.7583 TS 50 0 25 26
1955288N13281 1955 85 NA NA KATIE 1955-10-18 18:00:00 TS 26.9000 -67.1000 50 999 hurdat_atl main 867 867 O_____________ hurdat_atl AL131955 26.9000 -67.1000 TS 50 999 0 28 28
1955288N13281 1955 85 NA NA KATIE 1955-10-18 21:00:00 TS 28.1771 -66.3162 main 1031 1031 P_____________ AL131955 28.1771 -66.3162 TS 47 0 30 30
1955288N13281 1955 85 NA NA KATIE 1955-10-19 00:00:00 TS 29.5000 -65.4000 45 hurdat_atl main 1175 1165 O_____________ hurdat_atl AL131955 29.5000 -65.4000 TS 45 0 31 33
1955288N13281 1955 85 NA NA KATIE 1955-10-19 03:00:00 TS 30.7717 -64.3829 main 1169 1169 P_____________ AL131955 30.7717 -64.3829 TS 42 0 31 36
1955288N13281 1955 85 NA NA KATIE 1955-10-19 06:00:00 TS 32.0000 -63.3000 40 hurdat_atl main 1199 O_____________ hurdat_atl AL131955 32.0000 -63.3000 TS 40 0 31 37

About IBTrACS Database

This database is a web-friendly format of International Best Track Archive for Climate Stewardship (IBTrACS), a global best track data archive curated by NOAA dating back to 1842.

Updated: 2021-10-21